Mayoworth, Wyoming
Current Conditions -  °F | °C
As of 4:53 AM on Saturday 25 Oct 2014 (Local Time) from KBYG Reporting Station
Clear Clear  
Wind Chill: 34°   Ceiling: Unl
Heat Index: 39°   Visibility: 10mi
Dew Point: 29°   Wind: 7mph
Humidity: 67%   Direction: 160°SSE
Pressure: 30.11"   Gusts: NA
Location:  43.8063°N, 106.549°W
Report Text: KBYG 251053Z AUTO 16006KT 10SM CLR 04/M02 A3011 RMK AO2 SLP176 T00391017 $
Loading
Personal Weather Stations






























Interactive Weather Map
Tropical Storm Tracking
New forecast layout! Learn more

10-Day Weather Forecast

Advertisements
Track Severe Weather on mobile